sensor_id;sensor_type;location;lat;lon;timestamp;pressure;altitude;pressure_sealevel;temperature;humidity
71424;BME280;59240;51.370;-0.486;2023-02-23T00:11:43;101426.94;;;6.85;100.00
71424;BME280;59240;51.370;-0.486;2023-02-23T00:14:10;101419.97;;;6.72;100.00
71424;BME280;59240;51.370;-0.486;2023-02-23T00:16:37;101426.03;;;6.78;98.35
71424;BME280;59240;51.370;-0.486;2023-02-23T00:19:03;101407.03;;;6.66;97.92
71424;BME280;59240;51.370;-0.486;2023-02-23T00:21:35;101405.28;;;6.71;98.54
71424;BME280;59240;51.370;-0.486;2023-02-23T00:24:09;101439.94;;;6.94;100.00
71424;BME280;59240;51.370;-0.486;2023-02-23T00:26:58;101408.78;;;6.74;100.00
71424;BME280;59240;51.370;-0.486;2023-02-23T00:29:27;101402.72;;;6.71;98.73
71424;BME280;59240;51.370;-0.486;2023-02-23T00:31:54;101419.13;;;6.77;98.95
71424;BME280;59240;51.370;-0.486;2023-02-23T00:34:25;101426.94;;;6.82;99.70
71424;BME280;59240;51.370;-0.486;2023-02-23T00:36:55;101371.59;;;6.52;98.40
71424;BME280;59240;51.370;-0.486;2023-02-23T00:39:22;101445.13;;;6.94;99.16
71424;BME280;59240;51.370;-0.486;2023-02-23T00:41:55;101439.03;;;6.92;99.29
71424;BME280;59240;51.370;-0.486;2023-02-23T00:44:28;101441.66;;;6.94;99.87
71424;BME280;59240;51.370;-0.486;2023-02-23T00:47:01;101445.97;;;6.96;100.00
71424;BME280;59240;51.370;-0.486;2023-02-23T00:49:27;101413.13;;;6.83;98.39
71424;BME280;59240;51.370;-0.486;2023-02-23T00:51:54;101433.03;;;6.95;99.87
71424;BME280;59240;51.370;-0.486;2023-02-23T00:54:21;101433.88;;;6.92;98.43
71424;BME280;59240;51.370;-0.486;2023-02-23T00:56:48;101439.97;;;7.00;99.06
71424;BME280;59240;51.370;-0.486;2023-02-23T00:59:15;101397.59;;;6.80;99.41
71424;BME280;59240;51.370;-0.486;2023-02-23T01:01:43;101439.09;;;7.04;98.26
71424;BME280;59240;51.370;-0.486;2023-02-23T01:04:10;101444.28;;;7.04;98.69
71424;BME280;59240;51.370;-0.486;2023-02-23T01:06:41;101416.59;;;6.88;98.12
71424;BME280;59240;51.370;-0.486;2023-02-23T01:09:12;101442.53;;;7.03;99.86
71424;BME280;59240;51.370;-0.486;2023-02-23T01:11:40;101441.69;;;7.03;99.10
71424;BME280;59240;51.370;-0.486;2023-02-23T01:14:08;101432.16;;;6.97;100.00
71424;BME280;59240;51.370;-0.486;2023-02-23T01:16:35;101421.78;;;6.90;99.01
71424;BME280;59240;51.370;-0.486;2023-02-23T01:19:04;101432.19;;;7.00;98.02
71424;BME280;59240;51.370;-0.486;2023-02-23T01:21:36;101452.03;;;7.06;100.00
71424;BME280;59240;51.370;-0.486;2023-02-23T01:24:04;101427.84;;;6.93;99.67
71424;BME280;59240;51.370;-0.486;2023-02-23T01:26:37;101455.53;;;7.09;100.00
71424;BME280;59240;51.370;-0.486;2023-02-23T01:29:07;101452.94;;;7.09;99.54
71424;BME280;59240;51.370;-0.486;2023-02-23T01:31:41;101424.38;;;6.96;100.00
71424;BME280;59240;51.370;-0.486;2023-02-23T01:34:10;101450.38;;;7.14;99.03
71424;BME280;59240;51.370;-0.486;2023-02-23T01:36:41;101461.59;;;7.18;99.34
71424;BME280;59240;51.370;-0.486;2023-02-23T01:39:12;101433.94;;;7.07;100.00
71424;BME280;59240;51.370;-0.486;2023-02-23T01:41:39;101412.31;;;6.95;98.95
71424;BME280;59240;51.370;-0.486;2023-02-23T01:46:43;101446.88;;;7.12;99.23
71424;BME280;59240;51.370;-0.486;2023-02-23T01:49:14;101457.28;;;7.23;99.21
71424;BME280;59240;51.370;-0.486;2023-02-23T01:51:45;101452.09;;;7.23;99.59
71424;BME280;59240;51.370;-0.486;2023-02-23T01:54:23;101448.66;;;7.21;100.00
71424;BME280;59240;51.370;-0.486;2023-02-23T01:56:52;101407.13;;;6.96;99.04
71424;BME280;59240;51.370;-0.486;2023-02-23T01:59:31;101435.69;;;7.16;100.00
71424;BME280;59240;51.370;-0.486;2023-02-23T02:02:00;101454.69;;;7.26;99.19
71424;BME280;59240;51.370;-0.486;2023-02-23T02:04:27;101454.69;;;7.26;98.89
71424;BME280;59240;51.370;-0.486;2023-02-23T02:06:59;101433.09;;;7.15;98.69
71424;BME280;59240;51.370;-0.486;2023-02-23T02:09:30;101432.22;;;7.16;98.38
71424;BME280;59240;51.370;-0.486;2023-02-23T02:12:03;101433.06;;;7.11;97.84
71424;BME280;59240;51.370;-0.486;2023-02-23T02:14:34;101440.00;;;7.14;100.00
71424;BME280;59240;51.370;-0.486;2023-02-23T02:17:45;101452.06;;;7.10;98.19
71424;BME280;59240;51.370;-0.486;2023-02-23T02:27:11;101458.97;;;7.10;100.00
71424;BME280;59240;51.370;-0.486;2023-02-23T02:29:52;101441.66;;;6.98;100.00
71424;BME280;59240;51.370;-0.486;2023-02-23T03:17:35;101445.06;;;6.80;100.00
71424;BME280;59240;51.370;-0.486;2023-02-23T03:23:47;101451.09;;;6.81;100.00
71424;BME280;59240;51.370;-0.486;2023-02-23T03:26:46;101451.06;;;6.78;100.00
71424;BME280;59240;51.370;-0.486;2023-02-23T03:29:46;101409.56;;;6.56;100.00
71424;BME280;59240;51.370;-0.486;2023-02-23T03:32:40;101451.03;;;6.72;100.00
71424;BME280;59240;51.370;-0.486;2023-02-23T03:36:20;101459.69;;;6.77;100.00
71424;BME280;59240;51.370;-0.486;2023-02-23T03:38:48;101451.91;;;6.69;100.00
71424;BME280;59240;51.370;-0.486;2023-02-23T03:41:36;101451.03;;;6.66;100.00
71424;BME280;59240;51.370;-0.486;2023-02-23T03:44:30;101474.38;;;6.76;100.00
71424;BME280;59240;51.370;-0.486;2023-02-23T03:47:17;101466.53;;;6.64;100.00
71424;BME280;59240;51.370;-0.486;2023-02-23T03:50:10;101471.78;;;6.73;100.00
71424;BME280;59240;51.370;-0.486;2023-02-23T03:52:58;101453.59;;;6.60;100.00
71424;BME280;59240;51.370;-0.486;2023-02-23T03:55:50;101459.66;;;6.66;100.00
71424;BME280;59240;51.370;-0.486;2023-02-23T03:58:39;101477.88;;;6.81;100.00
71424;BME280;59240;51.370;-0.486;2023-02-23T04:01:30;101466.56;;;6.72;100.00
71424;BME280;59240;51.370;-0.486;2023-02-23T04:04:15;101460.53;;;6.71;100.00
71424;BME280;59240;51.370;-0.486;2023-02-23T04:18:42;101496.03;;;6.89;100.00
71424;BME280;59240;51.370;-0.486;2023-02-23T04:21:09;101475.28;;;6.83;100.00
71424;BME280;59240;51.370;-0.486;2023-02-23T04:23:37;101471.78;;;6.78;100.00
71424;BME280;59240;51.370;-0.486;2023-02-23T04:26:06;101465.75;;;6.79;100.00
71424;BME280;59240;51.370;-0.486;2023-02-23T04:28:32;101489.13;;;6.91;99.90
71424;BME280;59240;51.370;-0.486;2023-02-23T04:30:59;101466.59;;;6.78;100.00
71424;BME280;59240;51.370;-0.486;2023-02-23T04:33:26;101488.25;;;6.89;100.00
71424;BME280;59240;51.370;-0.486;2023-02-23T04:35:53;101492.56;;;6.90;100.00
71424;BME280;59240;51.370;-0.486;2023-02-23T04:38:20;101449.28;;;6.65;99.95
71424;BME280;59240;51.370;-0.486;2023-02-23T04:40:47;101460.56;;;6.77;99.75
71424;BME280;59240;51.370;-0.486;2023-02-23T04:43:14;101500.38;;;6.98;100.00
71424;BME280;59240;51.370;-0.486;2023-02-23T04:45:41;101469.22;;;6.81;99.83
71424;BME280;59240;51.370;-0.486;2023-02-23T04:48:08;101476.13;;;6.85;100.00
71424;BME280;59240;51.370;-0.486;2023-02-23T04:50:35;101477.03;;;6.87;100.00
71424;BME280;59240;51.370;-0.486;2023-02-23T04:53:01;101484.81;;;6.89;100.00
71424;BME280;59240;51.370;-0.486;2023-02-23T04:55:28;101482.19;;;6.84;100.00
71424;BME280;59240;51.370;-0.486;2023-02-23T04:57:59;101495.16;;;6.87;99.83
71424;BME280;59240;51.370;-0.486;2023-02-23T05:00:27;101519.38;;;6.95;100.00
71424;BME280;59240;51.370;-0.486;2023-02-23T05:22:11;101535.78;;;6.97;100.00
71424;BME280;59240;51.370;-0.486;2023-02-23T05:24:39;101534.91;;;6.97;100.00
71424;BME280;59240;51.370;-0.486;2023-02-23T05:27:07;101531.47;;;6.98;100.00
71424;BME280;59240;51.370;-0.486;2023-02-23T05:29:34;101543.56;;;7.03;99.52
71424;BME280;59240;51.370;-0.486;2023-02-23T05:32:00;101523.66;;;6.92;99.50
71424;BME280;59240;51.370;-0.486;2023-02-23T05:34:27;101534.91;;;6.95;100.00
71424;BME280;59240;51.370;-0.486;2023-02-23T05:37:00;101527.94;;;6.83;100.00
71424;BME280;59240;51.370;-0.486;2023-02-23T05:39:36;101555.63;;;6.97;100.00
71424;BME280;59240;51.370;-0.486;2023-02-23T05:42:03;101556.53;;;7.00;100.00
71424;BME280;59240;51.370;-0.486;2023-02-23T05:44:30;101559.13;;;7.03;100.00
71424;BME280;59240;51.370;-0.486;2023-02-23T05:46:56;101522.75;;;6.80;100.00
71424;BME280;59240;51.370;-0.486;2023-02-23T05:49:23;101527.94;;;6.82;100.00
71424;BME280;59240;51.370;-0.486;2023-02-23T05:51:50;101572.97;;;7.08;100.00
71424;BME280;59240;51.370;-0.486;2023-02-23T05:54:17;101565.16;;;7.05;100.00
71424;BME280;59240;51.370;-0.486;2023-02-23T05:56:46;101532.25;;;6.86;100.00
71424;BME280;59240;51.370;-0.486;2023-02-23T05:59:12;101533.09;;;6.82;100.00
71424;BME280;59240;51.370;-0.486;2023-02-23T06:01:39;101541.75;;;6.82;100.00
71424;BME280;59240;51.370;-0.486;2023-02-23T06:04:07;101568.63;;;7.04;100.00
71424;BME280;59240;51.370;-0.486;2023-02-23T06:06:36;101522.72;;;6.77;99.98
71424;BME280;59240;51.370;-0.486;2023-02-23T06:09:03;101540.91;;;6.88;100.00
71424;BME280;59240;51.370;-0.486;2023-02-23T06:11:30;101560.81;;;6.98;100.00
71424;BME280;59240;51.370;-0.486;2023-02-23T06:18:21;101591.09;;;7.11;100.00
71424;BME280;59240;51.370;-0.486;2023-02-23T06:20:48;101587.63;;;7.06;100.00
71424;BME280;59240;51.370;-0.486;2023-02-23T06:23:15;101583.31;;;7.01;100.00
71424;BME280;59240;51.370;-0.486;2023-02-23T06:25:43;101585.03;;;7.05;99.69
71424;BME280;59240;51.370;-0.486;2023-02-23T06:28:10;101618.75;;;7.12;100.00
71424;BME280;59240;51.370;-0.486;2023-02-23T06:30:39;101575.41;;;6.84;100.00
71424;BME280;59240;51.370;-0.486;2023-02-23T06:33:06;101598.81;;;6.93;100.00
71424;BME280;59240;51.370;-0.486;2023-02-23T06:35:34;101585.78;;;6.81;99.68
71424;BME280;59240;51.370;-0.486;2023-02-23T06:38:02;101610.94;;;7.03;100.00
71424;BME280;59240;51.370;-0.486;2023-02-23T06:40:32;101584.94;;;6.87;100.00
71424;BME280;59240;51.370;-0.486;2023-02-23T06:43:04;101594.44;;;6.88;100.00
71424;BME280;59240;51.370;-0.486;2023-02-23T06:45:34;101608.31;;;6.97;100.00
71424;BME280;59240;51.370;-0.486;2023-02-23T06:48:00;101610.06;;;7.01;99.60
71424;BME280;59240;51.370;-0.486;2023-02-23T06:50:27;101562.38;;;6.72;100.00
71424;BME280;59240;51.370;-0.486;2023-02-23T06:52:57;101615.22;;;6.95;100.00
71424;BME280;59240;51.370;-0.486;2023-02-23T06:55:24;101637.72;;;7.05;100.00
71424;BME280;59240;51.370;-0.486;2023-02-23T06:57:58;101614.34;;;6.96;100.00
71424;BME280;59240;51.370;-0.486;2023-02-23T07:00:31;101576.22;;;6.77;100.00
71424;BME280;59240;51.370;-0.486;2023-02-23T07:26:06;101641.19;;;7.10;100.00
71424;BME280;59240;51.370;-0.486;2023-02-23T07:28:35;101622.13;;;6.99;100.00
71424;BME280;59240;51.370;-0.486;2023-02-23T07:31:03;101659.41;;;7.21;100.00
71424;BME280;59240;51.370;-0.486;2023-02-23T07:33:30;101611.75;;;6.95;100.00
71424;BME280;59240;51.370;-0.486;2023-02-23T07:36:03;101663.75;;;7.24;99.70
71424;BME280;59240;51.370;-0.486;2023-02-23T07:38:30;101636.84;;;7.06;98.95
71424;BME280;59240;51.370;-0.486;2023-02-23T07:40:56;101682.78;;;7.30;99.60
71424;BME280;59240;51.370;-0.486;2023-02-23T07:43:26;101622.94;;;6.89;100.00
71424;BME280;59240;51.370;-0.486;2023-02-23T07:46:00;101665.38;;;7.09;98.64
71424;BME280;59240;51.370;-0.486;2023-02-23T07:48:29;101696.56;;;7.26;98.54
71424;BME280;59240;51.370;-0.486;2023-02-23T07:50:56;101678.38;;;7.20;99.87
71424;BME280;59240;51.370;-0.486;2023-02-23T07:53:27;101660.25;;;7.16;100.00
71424;BME280;59240;51.370;-0.486;2023-02-23T07:56:13;101637.75;;;7.08;100.00
71424;BME280;59240;51.370;-0.486;2023-02-23T07:58:59;101614.34;;;6.93;98.27
71424;BME280;59240;51.370;-0.486;2023-02-23T08:01:26;101657.69;;;7.23;97.91
71424;BME280;59240;51.370;-0.486;2023-02-23T08:03:59;101653.38;;;7.21;100.00
71424;BME280;59240;51.370;-0.486;2023-02-23T08:07:00;101647.28;;;7.17;100.00
71424;BME280;59240;51.370;-0.486;2023-02-23T08:10:14;101634.28;;;7.12;99.26
71424;BME280;59240;51.370;-0.486;2023-02-23T08:12:48;101647.31;;;7.23;99.14
71424;BME280;59240;51.370;-0.486;2023-02-23T08:15:29;101707.16;;;7.64;99.37
71424;BME280;59240;51.370;-0.486;2023-02-23T08:18:11;101649.97;;;7.34;98.16
71424;BME280;59240;51.370;-0.486;2023-02-23T08:21:01;101628.28;;;7.15;99.51
71424;BME280;59240;51.370;-0.486;2023-02-23T08:24:15;101688.94;;;7.51;100.00
71424;BME280;59240;51.370;-0.486;2023-02-23T08:26:48;101689.81;;;7.54;99.55
71424;BME280;59240;51.370;-0.486;2023-02-23T08:29:15;101679.47;;;7.56;97.59
71424;BME280;59240;51.370;-0.486;2023-02-23T08:31:43;101691.66;;;7.69;99.25
71424;BME280;59240;51.370;-0.486;2023-02-23T08:34:18;101694.22;;;7.71;99.27
71424;BME280;59240;51.370;-0.486;2023-02-23T08:37:28;101630.97;;;7.38;98.63
71424;BME280;59240;51.370;-0.486;2023-02-23T08:40:06;101704.59;;;7.74;97.18
71424;BME280;59240;51.370;-0.486;2023-02-23T08:42:36;101727.16;;;7.88;98.35
71424;BME280;59240;51.370;-0.486;2023-02-23T08:45:06;101658.69;;;7.48;97.79
71424;BME280;59240;51.370;-0.486;2023-02-23T08:47:53;101670.78;;;7.46;100.00
71424;BME280;59240;51.370;-0.486;2023-02-23T08:50:49;101687.22;;;7.50;98.51
71424;BME280;59240;51.370;-0.486;2023-02-23T08:53:27;101723.63;;;7.71;100.00
71424;BME280;59240;51.370;-0.486;2023-02-23T08:56:05;101683.75;;;7.52;99.30
71424;BME280;59240;51.370;-0.486;2023-02-23T08:58:34;101707.16;;;7.64;98.41
71424;BME280;59240;51.370;-0.486;2023-02-23T09:01:19;101666.41;;;7.39;97.17
71424;BME280;59240;51.370;-0.486;2023-02-23T09:04:08;101733.16;;;7.80;100.00
71424;BME280;59240;51.370;-0.486;2023-02-23T09:16:02;101656.09;;;7.50;97.99
71424;BME280;59240;51.370;-0.486;2023-02-23T09:26:49;101715.91;;;7.85;92.12
71424;BME280;59240;51.370;-0.486;2023-02-23T09:29:33;101685.63;;;7.79;94.38
71424;BME280;59240;51.370;-0.486;2023-02-23T09:32:14;101676.97;;;7.77;93.96
71424;BME280;59240;51.370;-0.486;2023-02-23T09:34:55;101705.56;;;7.91;98.60
71424;BME280;59240;51.370;-0.486;2023-02-23T09:37:34;101688.25;;;7.84;95.07
71424;BME280;59240;51.370;-0.486;2023-02-23T09:48:42;101743.72;;;8.19;98.32
71424;BME280;59240;51.370;-0.486;2023-02-23T09:56:37;101728.97;;;8.03;96.07
71424;BME280;59240;51.370;-0.486;2023-02-23T09:59:21;101730.69;;;8.06;93.39
71424;BME280;59240;51.370;-0.486;2023-02-23T10:02:22;101813.97;;;8.61;96.46
71424;BME280;59240;51.370;-0.486;2023-02-23T10:16:06;101802.78;;;8.94;94.96
71424;BME280;59240;51.370;-0.486;2023-02-23T10:34:15;101720.47;;;9.22;89.03
71424;BME280;59240;51.370;-0.486;2023-02-23T10:37:09;101768.97;;;9.55;92.10
71424;BME280;59240;51.370;-0.486;2023-02-23T10:40:06;101794.06;;;9.71;90.23
71424;BME280;59240;51.370;-0.486;2023-02-23T10:43:01;101747.28;;;9.44;82.75
71424;BME280;59240;51.370;-0.486;2023-02-23T10:45:42;101762.91;;;9.41;86.65
71424;BME280;59240;51.370;-0.486;2023-02-23T10:48:17;101827.03;;;9.75;86.81
71424;BME280;59240;51.370;-0.486;2023-02-23T10:51:21;101760.31;;;9.30;85.77
71424;BME280;59240;51.370;-0.486;2023-02-23T10:54:39;101827.03;;;9.75;88.69
71424;BME280;59240;51.370;-0.486;2023-02-23T10:57:36;101830.50;;;9.76;87.60
71424;BME280;59240;51.370;-0.486;2023-02-23T11:01:01;101762.94;;;9.28;86.06
71424;BME280;59240;51.370;-0.486;2023-02-23T11:04:21;101785.47;;;9.42;86.75
71424;BME280;59240;51.370;-0.486;2023-02-23T11:07:16;101794.13;;;9.42;89.23
71424;BME280;59240;51.370;-0.486;2023-02-23T11:09:43;101829.63;;;9.58;86.26
71424;BME280;59240;51.370;-0.486;2023-02-23T11:12:39;101836.59;;;9.61;84.66
71424;BME280;59240;51.370;-0.486;2023-02-23T11:15:26;101843.50;;;9.73;83.65
71424;BME280;59240;51.370;-0.486;2023-02-23T11:19:17;101835.72;;;9.68;84.56
71424;BME280;59240;51.370;-0.486;2023-02-23T11:21:38;101756.84;;;9.23;85.11
71424;BME280;59240;51.370;-0.486;2023-02-23T11:24:33;101784.56;;;9.32;81.05
71424;BME280;59240;51.370;-0.486;2023-02-23T11:54:36;101850.47;;;9.49;81.36
71424;BME280;59240;51.370;-0.486;2023-02-23T12:28:41;101836.56;;;9.89;78.98
71424;BME280;59240;51.370;-0.486;2023-02-23T12:31:23;101821.84;;;9.69;82.05
71424;BME280;59240;51.370;-0.486;2023-02-23T12:34:08;101807.97;;;9.55;82.62
71424;BME280;59240;51.370;-0.486;2023-02-23T12:36:49;101780.25;;;9.23;84.13
71424;BME280;59240;51.370;-0.486;2023-02-23T12:39:49;101817.53;;;9.42;87.61
71424;BME280;59240;51.370;-0.486;2023-02-23T12:46:05;101848.72;;;9.51;85.42
71424;BME280;59240;51.370;-0.486;2023-02-23T12:52:33;101787.19;;;9.15;86.92
71424;BME280;59240;51.370;-0.486;2023-02-23T13:02:46;101853.06;;;9.69;83.15
71424;BME280;59240;51.370;-0.486;2023-02-23T13:28:00;101808.84;;;9.54;85.76
71424;BME280;59240;51.370;-0.486;2023-02-23T13:30:30;101795.84;;;9.45;83.00
71424;BME280;59240;51.370;-0.486;2023-02-23T13:48:58;101850.44;;;9.89;82.29
71424;BME280;59240;51.370;-0.486;2023-02-23T13:55:51;101854.75;;;9.92;83.49
71424;BME280;59240;51.370;-0.486;2023-02-23T14:15:27;101858.25;;;9.83;86.64
71424;BME280;59240;51.370;-0.486;2023-02-23T14:21:50;101768.13;;;9.27;87.24
71424;BME280;59240;51.370;-0.486;2023-02-23T14:28:40;101840.91;;;9.71;83.45
71424;BME280;59240;51.370;-0.486;2023-02-23T14:41:11;101776.78;;;9.18;80.05
71424;BME280;59240;51.370;-0.486;2023-02-23T14:48:06;101872.13;;;9.60;79.90
71424;BME280;59240;51.370;-0.486;2023-02-23T14:57:45;101873.84;;;9.46;79.67
71424;BME280;59240;51.370;-0.486;2023-02-23T15:00:28;101814.91;;;9.10;82.72
71424;BME280;59240;51.370;-0.486;2023-02-23T15:03:41;101814.06;;;9.02;82.55
71424;BME280;59240;51.370;-0.486;2023-02-23T15:06:26;101783.72;;;8.86;82.20
71424;BME280;59240;51.370;-0.486;2023-02-23T15:09:41;101778.50;;;8.83;81.70
71424;BME280;59240;51.370;-0.486;2023-02-23T15:12:41;101794.13;;;8.86;80.51
71424;BME280;59240;51.370;-0.486;2023-02-23T15:15:26;101795.84;;;8.87;80.71
71424;BME280;59240;51.370;-0.486;2023-02-23T15:17:58;101837.44;;;9.00;79.64
71424;BME280;59240;51.370;-0.486;2023-02-23T15:20:32;101840.03;;;8.97;81.49
71424;BME280;59240;51.370;-0.486;2023-02-23T15:27:40;101835.69;;;8.80;80.65
71424;BME280;59240;51.370;-0.486;2023-02-23T15:30:43;101906.75;;;9.12;79.80
71424;BME280;59240;51.370;-0.486;2023-02-23T15:33:36;101865.13;;;8.91;80.31
71424;BME280;59240;51.370;-0.486;2023-02-23T15:37:13;101895.50;;;9.07;82.24
71424;BME280;59240;51.370;-0.486;2023-02-23T15:40:17;101802.69;;;8.49;81.84
71424;BME280;59240;51.370;-0.486;2023-02-23T15:46:59;101840.81;;;8.64;80.08
71424;BME280;59240;51.370;-0.486;2023-02-23T15:49:37;101840.81;;;8.64;80.26
71424;BME280;59240;51.370;-0.486;2023-02-23T15:52:19;101863.38;;;8.76;79.06
71424;BME280;59240;51.370;-0.486;2023-02-23T15:55:08;101842.53;;;8.56;77.83
71424;BME280;59240;51.370;-0.486;2023-02-23T15:58:01;101885.91;;;8.82;78.80
71424;BME280;59240;51.370;-0.486;2023-02-23T16:00:57;101825.19;;;8.46;77.38
71424;BME280;59240;51.370;-0.486;2023-02-23T16:03:56;101892.84;;;8.89;79.84
71424;BME280;59240;51.370;-0.486;2023-02-23T16:06:31;101833.88;;;8.54;79.52
71424;BME280;59240;51.370;-0.486;2023-02-23T16:13:01;101868.53;;;8.71;79.04
71424;BME280;59240;51.370;-0.486;2023-02-23T16:15:52;101815.59;;;8.34;77.05
71424;BME280;59240;51.370;-0.486;2023-02-23T16:18:40;101861.59;;;8.63;77.30
71424;BME280;59240;51.370;-0.486;2023-02-23T16:25:58;101812.97;;;8.27;76.06
71424;BME280;59240;51.370;-0.486;2023-02-23T16:28:45;101880.63;;;8.54;77.73
71424;BME280;59240;51.370;-0.486;2023-02-23T16:31:38;101804.22;;;8.09;76.30
71424;BME280;59240;51.370;-0.486;2023-02-23T16:38:13;101906.59;;;8.57;75.77
71424;BME280;59240;51.370;-0.486;2023-02-23T16:40:48;101840.59;;;8.15;77.62
71424;BME280;59240;51.370;-0.486;2023-02-23T16:43:48;101899.63;;;8.50;76.80
71424;BME280;59240;51.370;-0.486;2023-02-23T16:46:22;101865.72;;;8.19;77.23
71424;BME280;59240;51.370;-0.486;2023-02-23T16:49:24;101832.72;;;8.00;77.83
71424;BME280;59240;51.370;-0.486;2023-02-23T16:51:55;101873.53;;;8.26;77.98
71424;BME280;59240;51.370;-0.486;2023-02-23T16:54:33;101812.72;;;7.81;76.63
71424;BME280;59240;51.370;-0.486;2023-02-23T16:57:48;101912.59;;;8.38;78.79
71424;BME280;59240;51.370;-0.486;2023-02-23T17:01:18;101829.16;;;7.81;76.94
71424;BME280;59240;51.370;-0.486;2023-02-23T17:04:26;101807.50;;;7.75;76.35
71424;BME280;59240;51.370;-0.486;2023-02-23T17:06:58;101904.69;;;8.29;78.07
71424;BME280;59240;51.370;-0.486;2023-02-23T17:09:42;101816.13;;;7.72;77.01
71424;BME280;59240;51.370;-0.486;2023-02-23T17:16:34;101856.03;;;7.91;76.73
71424;BME280;59240;51.370;-0.486;2023-02-23T19:09:19;101901.09;;;7.00;73.23
71424;BME280;59240;51.370;-0.486;2023-02-23T19:16:17;101914.13;;;7.12;73.04
71424;BME280;59240;51.370;-0.486;2023-02-23T19:19:02;101878.50;;;6.90;71.78
71424;BME280;59240;51.370;-0.486;2023-02-23T19:21:38;101938.38;;;7.18;72.02
71424;BME280;59240;51.370;-0.486;2023-02-23T19:25:02;101900.22;;;7.01;71.83
71424;BME280;59240;51.370;-0.486;2023-02-23T19:28:37;101927.13;;;7.14;73.29
71424;BME280;59240;51.370;-0.486;2023-02-23T19:35:53;101895.00;;;6.98;72.25
71424;BME280;59240;51.370;-0.486;2023-02-23T19:38:34;101875.91;;;6.90;72.09
71424;BME280;59240;51.370;-0.486;2023-02-23T19:45:29;101889.75;;;6.92;72.13
71424;BME280;59240;51.370;-0.486;2023-02-23T19:55:38;101876.72;;;6.86;71.99
71424;BME280;59240;51.370;-0.486;2023-02-23T19:58:34;101864.56;;;6.77;71.29
71424;BME280;59240;51.370;-0.486;2023-02-23T20:13:55;101888.47;;;6.56;69.97
71424;BME280;59240;51.370;-0.486;2023-02-23T20:46:17;101953.28;;;6.03;70.65
71424;BME280;59240;51.370;-0.486;2023-02-23T20:52:36;101914.66;;;5.61;70.30
